KLHW

Wright AAF (Fort Stewart) / Midcoast Regional Airport

Fort Stewart(Hinesville), Georgia, USA
METAR KLHW 141232Z 00000KT 4SM -RA BR BKN002 OVC011 14/14 A3006 RMK AO2A SLP182 $
Observed Flight Rules
Dec-14 @ 12:32 UTC (29 minutes ago) Instrument Flight Rules
Visibility Clouds Conditions
4 miles
  • Broken at 200' AGL
  • Overcast at 1,100' AGL
  • Light Rain
  • Mist
Temperatures Readings
Current 14°C / 57°F
Dewpoint 14°C / 57°F
Humidity 100%
Altimeter 30.06" Hg
Pressure 1018.2 hPa
Elevation 14
METAR KLHW 141232Z 00000KT 4SM -RA BR BKN002 OVC011 14/14 A3006 RMK AO2A SLP182 $
Observed Flight Rules
Dec-14 @ 12:32 UTC
(29 minutes ago)
LIFR
Clouds
  • Broken at 200' AGL
  • Overcast at 1,100' AGL
Conditions
  • Light Rain
  • Mist
Temperature Dewpoint
14°C / 57°F 14°C / 57°F
Humidity Altimeter Pressure
100% 30.06" Hg 1018.2 hPa